Terminal Aerodrome Forecast
Issued by NWS

Home | Current Version | Previous Version | Text Only | Print | Product List | Glossary On
Versions: 1 2 3 4 5 6 7 8 9 10 11 12 13 14 15 16 17 18 19 20
471
FTUS43 KGRB 201638 AAB
TAFAUW
TAF AMD
KAUW 201638Z 2017/2112 09006KT 4SM BR BKN025 OVC050
      TEMPO 2017/2019 2SM -RA BR BKN003
     FM201900 10004KT 3SM -DZ BR OVC006
     FM210300 10004KT 1SM -DZ BR OVC003
     FM210600 10005KT 1/2SM -DZ FG OVC002=

USA.gov is the U.S. government's official web portal to all federal, state and local government web resources and services.